Time;durP1;ratioP1;P1;durP2;ratioP2;P2;SDS_P1;SDS_P2;PMS_P1;PMS_P2;Temp;Humidity;BMP_temperature;BMP_pressure;BME280_temperature;BME280_humidity;BME280_pressure;Samples;Min_cycle;Max_cycle;Signal;HPM_P1;HPM_P2
2023/11/07 00:01:27;;;;;;;58.20;40.40;;;;;;;4.96;100.00;98558.45;109777;1250;62851;-70
2023/11/07 00:04:07;;;;;;;71.20;52.00;;;;;;;4.96;100.00;98551.40;109525;1250;60037;-70
2023/11/07 00:06:34;;;;;;;62.60;49.60;;;;;;;4.96;100.00;98546.13;109537;1251;59973;-71
2023/11/07 00:09:01;;;;;;;67.50;47.90;;;;;;;4.95;100.00;98544.45;109772;1250;60587;-70
2023/11/07 00:11:27;;;;;;;67.80;48.30;;;;;;;4.91;100.00;98542.72;109788;1249;60140;-70
2023/11/07 00:13:54;;;;;;;62.20;49.80;;;;;;;4.88;100.00;98539.15;109763;1250;59892;-70
2023/11/07 00:16:20;;;;;;;63.60;46.30;;;;;;;4.85;100.00;98533.54;109562;1249;59789;-71
2023/11/07 00:18:47;;;;;;;61.20;46.30;;;;;;;4.80;100.00;98533.94;109765;1249;60688;-69
2023/11/07 00:21:14;;;;;;;58.50;44.40;;;;;;;4.77;100.00;98537.45;109789;1249;66566;-69
2023/11/07 00:23:40;;;;;;;56.30;40.00;;;;;;;4.75;100.00;98539.30;109807;1249;59855;-70
2023/11/07 00:26:07;;;;;;;46.10;36.80;;;;;;;4.78;100.00;98543.38;109538;1251;59845;-70
2023/11/07 00:28:33;;;;;;;44.00;33.70;;;;;;;4.82;100.00;98541.24;109746;1250;59755;-70
2023/11/07 00:30:59;;;;;;;34.40;27.00;;;;;;;4.87;100.00;98540.81;109758;1249;60104;-70
2023/11/07 00:33:26;;;;;;;35.00;25.70;;;;;;;4.93;100.00;98542.95;109790;1250;59762;-70
2023/11/07 00:35:52;;;;;;;36.10;25.40;;;;;;;5.00;100.00;98541.02;109755;1250;60166;-70
2023/11/07 00:38:19;;;;;;;30.70;23.20;;;;;;;5.07;100.00;98543.13;109793;1250;59952;-70
2023/11/07 00:40:45;;;;;;;26.70;19.60;;;;;;;5.12;100.00;98547.60;109767;1249;60253;-70
2023/11/07 00:43:12;;;;;;;21.30;16.40;;;;;;;5.19;100.00;98550.10;109761;1249;59839;-70
2023/11/07 00:45:39;;;;;;;24.90;17.20;;;;;;;5.25;100.00;98552.73;109595;1250;67964;-69
2023/11/07 00:48:05;;;;;;;22.30;16.50;;;;;;;5.34;100.00;98553.16;109602;1249;59839;-69
2023/11/07 00:50:32;;;;;;;23.00;17.80;;;;;;;5.41;100.00;98557.16;109767;1249;59901;-70
2023/11/07 00:52:58;;;;;;;27.30;19.10;;;;;;;5.45;100.00;98560.50;109549;1250;59918;-70
2023/11/07 00:55:25;;;;;;;30.90;21.30;;;;;;;5.47;100.00;98562.53;109805;1250;59808;-70
2023/11/07 00:57:52;;;;;;;33.00;21.80;;;;;;;5.47;100.00;98566.58;109833;1249;67275;-69
2023/11/07 01:00:19;;;;;;;30.90;24.90;;;;;;;5.48;100.00;98567.22;109523;1249;59818;-70
2023/11/07 01:02:47;;;;;;;33.50;24.70;;;;;;;5.51;100.00;98563.91;109755;1250;64072;-70
2023/11/07 01:05:13;;;;;;;30.10;24.30;;;;;;;5.51;100.00;98565.31;109516;1251;59860;-69
2023/11/07 01:07:40;;;;;;;35.90;26.20;;;;;;;5.50;100.00;98569.57;109785;1250;59782;-70
2023/11/07 01:10:07;;;;;;;38.30;26.20;;;;;;;5.49;100.00;98572.08;109775;1250;68027;-70
2023/11/07 01:12:33;;;;;;;29.10;24.30;;;;;;;5.47;100.00;98571.48;109781;1250;60123;-70
2023/11/07 01:15:00;;;;;;;38.50;26.50;;;;;;;5.44;100.00;98566.21;109819;1249;65265;-70
2023/11/07 01:17:26;;;;;;;34.00;25.80;;;;;;;5.40;100.00;98561.15;109756;1249;59951;-70
2023/11/07 01:19:53;;;;;;;31.80;23.10;;;;;;;5.37;100.00;98562.89;109782;1250;59840;-69
2023/11/07 01:22:20;;;;;;;30.90;23.30;;;;;;;5.32;100.00;98565.59;109403;1250;66508;-70
2023/11/07 01:24:46;;;;;;;29.40;21.40;;;;;;;5.28;100.00;98572.14;109779;1251;59905;-69
2023/11/07 01:27:13;;;;;;;31.50;22.60;;;;;;;5.23;100.00;98570.79;109768;1250;60001;-69
2023/11/07 01:29:39;;;;;;;34.50;24.00;;;;;;;5.18;100.00;98572.31;109752;1249;59831;-70
2023/11/07 01:32:06;;;;;;;35.80;24.70;;;;;;;5.13;100.00;98573.65;109818;1249;59791;-70
2023/11/07 01:34:33;;;;;;;34.50;27.30;;;;;;;5.06;100.00;98579.25;109776;1249;65762;-70
2023/11/07 01:36:59;;;;;;;38.00;25.70;;;;;;;5.01;100.00;98582.54;109771;1250;60048;-70
2023/11/07 01:39:26;;;;;;;41.10;30.90;;;;;;;4.97;100.00;98588.51;109742;1249;59973;-69
2023/11/07 01:41:52;;;;;;;45.10;34.80;;;;;;;4.95;100.00;98589.16;109745;1251;59785;-70
2023/11/07 01:44:19;;;;;;;48.20;34.60;;;;;;;4.93;100.00;98591.02;109799;1249;59749;-69
2023/11/07 01:46:45;;;;;;;48.60;38.20;;;;;;;4.91;100.00;98591.46;109783;1250;59764;-70
2023/11/07 01:49:12;;;;;;;47.80;38.60;;;;;;;4.88;100.00;98591.62;109827;1249;59753;-70
2023/11/07 01:51:38;;;;;;;45.00;36.10;;;;;;;4.85;100.00;98591.05;109729;1249;59929;-70
2023/11/07 01:54:07;;;;;;;42.40;32.70;;;;;;;4.81;100.00;98594.23;109586;1249;60191;-70
2023/11/07 01:56:33;;;;;;;40.80;30.90;;;;;;;4.77;100.00;98594.27;109559;1249;59827;-69
2023/11/07 01:59:01;;;;;;;50.40;37.00;;;;;;;4.73;100.00;98597.67;109408;1250;66682;-69
2023/11/07 02:01:31;;;;;;;60.30;46.60;;;;;;;4.67;100.00;98599.69;109572;1250;60169;-69
2023/11/07 02:03:58;;;;;;;;;;;;;;;4.65;100.00;98603.00;109577;1249;64207;-70
2023/11/07 02:06:24;;;;;;;56.00;41.60;;;;;;;4.60;100.00;98604.96;109767;1249;59789;-70
2023/11/07 02:08:51;;;;;;;49.80;39.60;;;;;;;4.58;100.00;98604.21;109777;1249;59899;-69
2023/11/07 02:11:17;;;;;;;46.20;36.60;;;;;;;4.54;100.00;98607.02;109769;1249;59786;-69
2023/11/07 02:13:47;;;;;;;48.20;37.10;;;;;;;4.51;100.00;98604.70;109840;1250;61480;-70
2023/11/07 02:16:14;;;;;;;46.30;36.20;;;;;;;4.46;100.00;98605.30;109772;1249;65182;-69
2023/11/07 02:18:40;;;;;;;45.30;35.50;;;;;;;4.42;100.00;98603.90;109799;1249;59692;-70
2023/11/07 02:21:07;;;;;;;46.20;35.60;;;;;;;4.37;100.00;98602.38;109799;1250;60088;-70
2023/11/07 02:23:33;;;;;;;41.80;32.00;;;;;;;4.32;100.00;98607.39;109786;1249;59920;-68
2023/11/07 02:26:01;;;;;;;36.50;30.40;;;;;;;4.27;100.00;98604.25;109581;1250;60103;-69
2023/11/07 02:28:27;;;;;;;41.20;31.00;;;;;;;4.23;100.00;98604.96;109564;1249;62518;-69
2023/11/07 02:30:54;;;;;;;47.40;36.00;;;;;;;4.20;100.00;98601.28;109755;1250;59994;-69
2023/11/07 02:33:21;;;;;;;45.90;37.30;;;;;;;4.17;100.00;98601.59;109509;1248;60112;-69
2023/11/07 02:35:47;;;;;;;51.20;38.00;;;;;;;4.14;100.00;98606.45;109813;1250;68008;-69
2023/11/07 02:38:14;;;;;;;44.20;34.70;;;;;;;4.11;100.00;98610.14;109570;1249;59914;-69
2023/11/07 02:40:40;;;;;;;46.40;34.80;;;;;;;4.06;100.00;98612.09;109807;1250;64099;-69
2023/11/07 02:43:07;;;;;;;42.80;32.70;;;;;;;4.03;100.00;98610.87;109820;1249;59762;-70
2023/11/07 02:45:35;;;;;;;44.40;34.20;;;;;;;3.96;100.00;98610.45;109784;1249;59832;-69
2023/11/07 02:48:03;;;;;;;37.50;29.20;;;;;;;3.93;100.00;98610.62;109808;1249;66849;-69
2023/11/07 02:50:31;;;;;;;42.90;32.90;;;;;;;3.90;100.00;98609.69;109558;1249;61416;-69
2023/11/07 02:52:58;;;;;;;42.80;33.30;;;;;;;3.86;100.00;98610.06;109547;1250;63731;-69
2023/11/07 02:55:25;;;;;;;43.90;32.80;;;;;;;3.82;100.00;98611.14;109797;1249;60079;-69
2023/11/07 02:57:51;;;;;;;49.70;36.30;;;;;;;3.80;100.00;98610.33;109837;1250;59838;-69
2023/11/07 03:00:33;;;;;;;48.60;39.70;;;;;;;3.80;100.00;98612.62;109790;1250;60043;-70
2023/11/07 03:03:00;;;;;;;44.70;36.50;;;;;;;3.82;100.00;98609.52;109779;1250;60033;-70
2023/11/07 03:05:27;;;;;;;49.00;37.30;;;;;;;3.85;100.00;98609.95;109567;1249;64133;-70
2023/11/07 03:07:53;;;;;;;47.20;35.10;;;;;;;3.85;100.00;98611.51;109815;1249;59722;-70
2023/11/07 03:10:19;;;;;;;47.00;36.40;;;;;;;3.85;100.00;98611.31;109566;1251;59844;-69
2023/11/07 03:12:47;;;;;;;40.60;34.40;;;;;;;3.85;100.00;98611.14;109420;1250;60729;-69
2023/11/07 03:15:13;;;;;;;46.70;35.60;;;;;;;3.85;100.00;98615.57;109423;1251;60142;-70
2023/11/07 03:17:40;;;;;;;47.00;36.50;;;;;;;3.82;100.00;98614.45;109822;1249;60258;-70
2023/11/07 03:20:08;;;;;;;45.50;32.70;;;;;;;3.81;100.00;98616.44;109646;1249;59746;-70
2023/11/07 03:22:35;;;;;;;42.80;33.30;;;;;;;3.78;100.00;98622.19;109696;1249;60000;-69
2023/11/07 03:25:02;;;;;;;47.00;35.10;;;;;;;3.74;100.00;98625.55;109641;1250;76485;-69
2023/11/07 03:27:28;;;;;;;49.50;38.90;;;;;;;3.69;100.00;98625.23;109664;1250;60051;-71
2023/11/07 03:29:55;;;;;;;49.10;38.80;;;;;;;3.66;100.00;98628.55;109653;1249;59899;-70
2023/11/07 03:32:21;;;;;;;49.30;42.00;;;;;;;3.64;100.00;98631.23;109620;1250;59755;-69
2023/11/07 03:34:48;;;;;;;49.00;40.60;;;;;;;3.62;100.00;98628.87;109684;1249;60119;-70
2023/11/07 03:37:14;;;;;;;44.90;36.20;;;;;;;3.62;100.00;98629.27;109655;1250;66591;-71
2023/11/07 03:39:41;;;;;;;45.10;34.40;;;;;;;3.59;100.00;98628.31;109551;1249;60126;-70
2023/11/07 03:42:08;;;;;;;41.40;34.50;;;;;;;3.56;100.00;98630.55;109542;1249;63743;-70
2023/11/07 03:44:35;;;;;;;46.70;34.70;;;;;;;3.53;100.00;98631.56;109658;1250;60204;-70
2023/11/07 03:47:03;;;;;;;50.40;38.00;;;;;;;3.48;100.00;98635.12;109397;1254;59861;-70
2023/11/07 03:49:30;;;;;;;47.10;37.90;;;;;;;3.48;100.00;98633.89;109486;1249;66823;-70
2023/11/07 03:51:56;;;;;;;47.10;35.40;;;;;;;3.54;100.00;98639.29;109643;1250;59833;-70
2023/11/07 03:54:23;;;;;;;45.10;35.90;;;;;;;3.58;100.00;98642.95;109625;1250;59912;-71
2023/11/07 03:56:50;;;;;;;49.40;37.30;;;;;;;3.59;100.00;98644.48;109662;1250;59728;-70
2023/11/07 03:59:16;;;;;;;45.20;34.80;;;;;;;3.61;100.00;98644.02;109646;1250;59792;-70
2023/11/07 04:01:43;;;;;;;47.40;35.50;;;;;;;3.65;100.00;98644.40;109646;1250;59853;-70
2023/11/07 04:04:09;;;;;;;40.30;34.30;;;;;;;3.65;100.00;98641.42;109793;1249;59843;-70
2023/11/07 04:06:36;;;;;;;46.10;34.90;;;;;;;3.63;100.00;98639.02;109834;1249;64167;-70
2023/11/07 04:09:04;;;;;;;43.10;34.40;;;;;;;3.64;100.00;98637.41;109810;1249;59814;-70
2023/11/07 04:11:32;;;;;;;42.30;34.80;;;;;;;3.64;100.00;98639.34;109809;1249;59720;-70
2023/11/07 04:13:58;;;;;;;44.50;35.50;;;;;;;3.61;100.00;98641.73;109854;1249;67695;-68
2023/11/07 04:16:26;;;;;;;44.80;36.50;;;;;;;3.59;100.00;98643.05;109826;1249;59876;-69
2023/11/07 04:18:53;;;;;;;46.20;36.30;;;;;;;3.59;100.00;98639.92;109653;1249;64092;-69
2023/11/07 04:21:20;;;;;;;47.90;36.40;;;;;;;3.59;100.00;98633.27;109573;1251;59883;-69
2023/11/07 04:23:46;;;;;;;42.80;35.20;;;;;;;3.58;100.00;98634.35;109796;1249;59792;-70
2023/11/07 04:26:13;;;;;;;39.60;33.30;;;;;;;3.55;100.00;98634.30;109840;1250;60135;-69
2023/11/07 04:28:39;;;;;;;41.20;31.20;;;;;;;3.51;100.00;98638.17;109832;1250;60083;-70
2023/11/07 04:31:07;;;;;;;43.30;35.10;;;;;;;3.48;100.00;98640.94;109560;1249;60286;-69
2023/11/07 04:33:34;;;;;;;41.90;37.00;;;;;;;3.45;100.00;98640.16;109805;1251;60109;-69
2023/11/07 04:36:01;;;;;;;43.10;34.40;;;;;;;3.42;100.00;98643.13;109869;1249;59787;-69
2023/11/07 04:38:30;;;;;;;42.00;36.60;;;;;;;3.39;100.00;98641.68;109566;1249;68121;-69
2023/11/07 04:40:56;;;;;;;44.70;37.20;;;;;;;3.36;100.00;98642.88;109832;1249;61247;-70
2023/11/07 04:43:25;;;;;;;43.90;39.20;;;;;;;3.30;100.00;98644.52;109825;1249;64147;-70
2023/11/07 04:45:51;;;;;;;48.90;40.70;;;;;;;3.28;100.00;98649.87;109688;1249;59845;-70
2023/11/07 04:48:19;;;;;;;64.40;50.60;;;;;;;3.25;100.00;98657.53;109855;1249;59820;-69
2023/11/07 04:50:46;;;;;;;59.00;49.00;;;;;;;3.26;100.00;98657.33;109817;1250;67005;-69
2023/11/07 04:53:12;;;;;;;67.90;53.90;;;;;;;3.29;100.00;98661.42;109833;1250;60970;-69
2023/11/07 04:55:39;;;;;;;66.30;49.50;;;;;;;3.30;100.00;98660.14;109822;1249;64074;-69
2023/11/07 04:58:05;;;;;;;56.90;48.90;;;;;;;3.31;100.00;98655.17;109409;1249;59849;-69
2023/11/07 05:00:32;;;;;;;56.20;48.40;;;;;;;3.32;100.00;98652.51;109903;1249;59876;-68
2023/11/07 05:02:59;;;;;;;56.10;47.30;;;;;;;3.29;100.00;98657.70;109843;1250;66554;-68
2023/11/07 05:05:25;;;;;;;58.60;47.30;;;;;;;3.24;100.00;98656.67;109809;1249;60104;-69
2023/11/07 05:07:52;;;;;;;54.30;45.80;;;;;;;3.21;100.00;98651.56;109851;1249;59768;-70
2023/11/07 05:10:19;;;;;;;55.40;45.30;;;;;;;3.17;100.00;98652.98;109418;1249;60102;-70
2023/11/07 05:12:46;;;;;;;56.10;42.00;;;;;;;3.14;100.00;98654.16;109848;1249;60087;-69
2023/11/07 05:15:13;;;;;;;53.30;43.40;;;;;;;3.09;100.00;98659.09;109394;1256;65774;-70
2023/11/07 05:17:40;;;;;;;53.30;43.90;;;;;;;3.06;100.00;98658.36;109885;1249;60103;-69
2023/11/07 05:20:08;;;;;;;55.30;44.60;;;;;;;3.06;100.00;98660.24;109820;1249;62425;-69
2023/11/07 05:22:34;;;;;;;58.00;47.10;;;;;;;3.11;100.00;98660.77;109819;1248;59791;-70
2023/11/07 05:25:01;;;;;;;58.00;46.20;;;;;;;3.17;100.00;98663.14;109851;1249;59767;-69
2023/11/07 05:27:28;;;;;;;52.50;42.60;;;;;;;3.27;100.00;98660.09;109805;1251;65618;-70
2023/11/07 05:29:54;;;;;;;48.50;38.70;;;;;;;3.38;100.00;98655.58;109840;1249;59823;-69
2023/11/07 05:32:21;;;;;;;40.10;29.60;;;;;;;3.52;100.00;98655.67;109827;1249;62790;-69
2023/11/07 05:34:47;;;;;;;26.20;22.50;;;;;;;3.69;100.00;98654.05;109855;1249;59836;-69
2023/11/07 05:37:16;;;;;;;17.50;13.80;;;;;;;3.92;100.00;98654.08;109832;1250;59798;-69
2023/11/07 05:39:44;;;;;;;14.00;11.10;;;;;;;4.23;100.00;98654.21;109485;1250;66549;-69
2023/11/07 05:42:11;;;;;;;11.60;9.30;;;;;;;4.53;100.00;98657.56;109559;1250;59826;-70
2023/11/07 05:44:38;;;;;;;14.30;9.20;;;;;;;4.86;100.00;98667.92;109415;1250;62554;-69
2023/11/07 05:47:06;;;;;;;13.50;9.10;;;;;;;5.21;100.00;98674.84;109770;1249;59735;-70
2023/11/07 05:49:34;;;;;;;17.90;9.60;;;;;;;5.47;100.00;98680.05;108788;1251;1002472;-70
2023/11/07 05:52:02;;;;;;;9.40;6.30;;;;;;;5.67;100.00;98683.40;109218;1254;66527;-70
2023/11/07 05:54:28;;;;;;;8.30;5.80;;;;;;;5.90;100.00;98687.50;108903;1257;60267;-70
2023/11/07 05:56:55;;;;;;;7.20;5.40;;;;;;;6.09;100.00;98688.30;109011;1257;65304;-69
2023/11/07 05:59:21;;;;;;;8.80;6.50;;;;;;;6.25;100.00;98693.21;108885;1257;60003;-69
2023/11/07 06:01:48;;;;;;;10.10;7.80;;;;;;;6.40;100.00;98697.73;109037;1257;60328;-69
2023/11/07 06:04:36;;;;;;;12.90;7.30;;;;;;;6.51;100.00;98699.05;109006;1257;65311;-69
2023/11/07 06:07:03;;;;;;;7.80;6.50;;;;;;;6.66;100.00;98698.77;108860;1257;67791;-69
2023/11/07 06:09:30;;;;;;;9.90;6.80;;;;;;;6.83;100.00;98702.23;108976;1257;63756;-69
2023/11/07 06:11:56;;;;;;;9.70;6.40;;;;;;;7.00;100.00;98705.31;109002;1257;59886;-70
2023/11/07 06:14:24;;;;;;;11.30;5.90;;;;;;;7.14;100.00;98706.48;109014;1257;59842;-69
2023/11/07 06:16:53;;;;;;;10.10;5.40;;;;;;;7.23;100.00;98712.48;108893;1257;66523;-69
2023/11/07 06:19:21;;;;;;;8.70;4.50;;;;;;;7.30;100.00;98715.97;108996;1257;60180;-69
2023/11/07 06:21:49;;;;;;;6.70;4.70;;;;;;;7.34;100.00;98722.29;108956;1257;64254;-69
2023/11/07 06:24:16;;;;;;;7.80;4.30;;;;;;;7.38;100.00;98727.86;109261;1254;59824;-68
2023/11/07 06:26:43;;;;;;;8.10;4.80;;;;;;;7.42;100.00;98729.58;109778;1250;60027;-69
2023/11/07 06:29:09;;;;;;;5.80;4.20;;;;;;;7.43;100.00;98732.67;109562;1251;68074;-70
2023/11/07 06:31:36;;;;;;;8.30;4.10;;;;;;;7.47;100.00;98736.70;109860;1249;60759;-69
2023/11/07 06:34:04;;;;;;;8.10;4.60;;;;;;;7.55;100.00;98735.71;109831;1250;63984;-69
2023/11/07 06:36:31;;;;;;;8.50;5.20;;;;;;;7.63;100.00;98735.95;109780;1250;59892;-69
2023/11/07 06:38:58;;;;;;;8.00;4.70;;;;;;;7.72;100.00;98736.63;109902;1249;59653;-69
2023/11/07 06:41:25;;;;;;;10.80;5.70;;;;;;;7.81;100.00;98738.94;109828;1250;67693;-70
2023/11/07 06:43:51;;;;;;;8.10;5.40;;;;;;;7.90;100.00;98744.42;109858;1249;60157;-70
2023/11/07 06:46:18;;;;;;;7.90;5.70;;;;;;;7.97;100.00;98748.77;109798;1250;63665;-70
2023/11/07 06:48:46;;;;;;;10.40;5.90;;;;;;;8.03;100.00;98745.25;109793;1250;59924;-70
2023/11/07 06:51:14;;;;;;;10.60;5.80;;;;;;;8.07;100.00;98742.70;109816;1249;60080;-70
2023/11/07 06:53:42;;;;;;;8.90;5.40;;;;;;;8.10;100.00;98739.88;109505;1249;65327;-70
2023/11/07 06:56:08;;;;;;;8.40;6.40;;;;;;;8.11;100.00;98741.71;109840;1250;60384;-69
2023/11/07 06:58:35;;;;;;;11.80;6.00;;;;;;;8.14;100.00;98746.86;109861;1250;63883;-70
2023/11/07 07:01:03;;;;;;;10.40;6.40;;;;;;;8.19;100.00;98752.42;109775;1249;59716;-70
2023/11/07 07:03:30;;;;;;;9.60;6.30;;;;;;;8.26;100.00;98756.02;109821;1250;60067;-70
2023/11/07 07:05:56;;;;;;;9.20;5.90;;;;;;;8.32;100.00;98760.42;109796;1249;68056;-70
2023/11/07 07:08:23;;;;;;;9.70;5.30;;;;;;;8.37;100.00;98764.95;109843;1250;60312;-70
2023/11/07 07:10:50;;;;;;;9.30;4.90;;;;;;;8.43;100.00;98770.45;109810;1251;64541;-70
2023/11/07 07:13:19;;;;;;;7.30;3.90;;;;;;;8.49;100.00;98767.73;109550;1252;60088;-70
2023/11/07 07:15:46;;;;;;;6.50;3.80;;;;;;;8.58;100.00;98774.49;109546;1249;60287;-70
2023/11/07 07:18:18;;;;;;;4.90;3.40;;;;;;;8.64;100.00;98775.36;109578;1251;65319;-70
2023/11/07 07:20:45;;;;;;;8.80;4.00;;;;;;;8.68;100.00;98775.79;109836;1250;59890;-70
2023/11/07 07:23:11;;;;;;;4.40;3.40;;;;;;;8.73;100.00;98775.80;109509;1250;63704;-70
2023/11/07 07:25:38;;;;;;;8.60;4.50;;;;;;;8.82;100.00;98776.52;109819;1250;59763;-69
2023/11/07 07:28:08;;;;;;;7.00;4.50;;;;;;;8.92;100.00;98774.27;109827;1250;59804;-69
2023/11/07 07:30:37;;;;;;;9.70;4.70;;;;;;;9.01;100.00;98784.33;109876;1249;68130;-69
2023/11/07 07:33:06;;;;;;;6.70;4.50;;;;;;;9.12;100.00;98783.77;109490;1251;60265;-68
2023/11/07 07:35:32;;;;;;;9.40;5.20;;;;;;;9.24;100.00;98785.67;109809;1249;63839;-68
2023/11/07 07:38:03;;;;;;;14.20;7.30;;;;;;;9.38;100.00;98786.38;109816;1250;59945;-68
2023/11/07 07:40:31;;;;;;;11.00;6.30;;;;;;;9.52;100.00;98787.23;109566;1250;60006;-69
2023/11/07 07:42:59;;;;;;;11.40;5.50;;;;;;;9.63;100.00;98788.98;109544;1250;67017;-69
2023/11/07 07:45:26;;;;;;;7.90;5.30;;;;;;;9.72;100.00;98786.96;109294;1254;60208;-69
2023/11/07 07:47:53;;;;;;;8.50;4.30;;;;;;;9.83;100.00;98790.50;109280;1254;63905;-70
2023/11/07 07:50:19;;;;;;;7.10;3.70;;;;;;;9.94;100.00;98794.55;109227;1254;59851;-69
2023/11/07 07:52:48;;;;;;;6.40;3.10;;;;;;;10.04;100.00;98798.86;109286;1254;59829;-69
2023/11/07 07:55:19;;;;;;;5.00;3.00;;;;;;;10.14;100.00;98803.48;109304;1254;65988;-70
2023/11/07 07:57:45;;;;;;;;;;;;;;;10.24;100.00;98809.02;109241;1254;60284;-69
2023/11/07 08:00:12;;;;;;;5.00;2.20;;;;;;;10.32;100.00;98811.48;109263;1254;60558;-68
2023/11/07 08:02:42;;;;;;;5.20;2.40;;;;;;;10.40;100.00;98809.55;109243;1254;59802;-70
2023/11/07 08:05:08;;;;;;;3.10;2.20;;;;;;;10.48;100.00;98804.17;109207;1254;59983;-70
2023/11/07 08:07:35;;;;;;;3.90;2.00;;;;;;;10.57;100.00;98804.83;109295;1254;60227;-70
2023/11/07 08:10:09;;;;;;;4.10;2.00;;;;;;;10.64;100.00;98803.42;109316;1254;59884;-70
2023/11/07 08:12:36;;;;;;;5.20;2.10;;;;;;;10.72;100.00;98806.05;109298;1254;65258;-71
2023/11/07 08:15:07;;;;;;;4.10;1.90;;;;;;;10.79;100.00;98807.73;109281;1254;60221;-70
2023/11/07 08:17:35;;;;;;;3.20;1.90;;;;;;;10.84;100.00;98805.73;109488;1250;59973;-71
2023/11/07 08:20:04;;;;;;;3.90;2.00;;;;;;;10.91;100.00;98806.64;109486;1250;65310;-71
2023/11/07 08:22:30;;;;;;;4.80;2.10;;;;;;;10.98;100.00;98812.42;109809;1251;61429;-70
2023/11/07 08:24:58;;;;;;;4.60;1.70;;;;;;;11.05;100.00;98814.23;109787;1249;59859;-70
2023/11/07 08:27:25;;;;;;;4.10;2.10;;;;;;;11.11;100.00;98811.84;109797;1250;60049;-68
2023/11/07 08:29:52;;;;;;;4.00;1.80;;;;;;;11.19;100.00;98812.50;109443;1249;60165;-69
2023/11/07 08:32:18;;;;;;;2.70;1.80;;;;;;;11.26;100.00;98813.76;109576;1250;67029;-68
2023/11/07 08:34:45;;;;;;;5.20;1.90;;;;;;;11.32;100.00;98815.46;109841;1249;60056;-68
2023/11/07 08:37:11;;;;;;;2.60;1.30;;;;;;;11.40;100.00;98817.20;109806;1249;59866;-68
2023/11/07 08:39:40;;;;;;;2.40;1.40;;;;;;;11.46;100.00;98822.59;109783;1250;60111;-69
2023/11/07 08:42:06;;;;;;;1.80;1.10;;;;;;;11.54;100.00;98824.73;109833;1249;59683;-69
2023/11/07 08:44:34;;;;;;;2.20;1.60;;;;;;;11.59;100.00;98824.64;109851;1251;60467;-69
2023/11/07 08:47:01;;;;;;;3.20;1.20;;;;;;;11.65;100.00;98826.20;109606;1249;60103;-69
2023/11/07 08:49:27;;;;;;;3.10;1.00;;;;;;;11.71;100.00;98826.11;109520;1251;63725;-69
2023/11/07 08:51:57;;;;;;;1.30;1.10;;;;;;;11.76;100.00;98827.33;109810;1250;59771;-69
2023/11/07 08:54:24;;;;;;;2.20;1.30;;;;;;;11.79;100.00;98823.52;109548;1250;59824;-69
2023/11/07 08:56:50;;;;;;;3.00;1.20;;;;;;;11.84;100.00;98820.16;109813;1249;68104;-68
2023/11/07 08:59:20;;;;;;;4.20;1.50;;;;;;;11.89;100.00;98820.87;109826;1249;60378;-69
2023/11/07 09:01:47;;;;;;;2.90;1.20;;;;;;;11.95;100.00;98822.39;109841;1250;62878;-70
2023/11/07 09:04:14;;;;;;;1.40;1.10;;;;;;;12.01;100.00;98824.09;109810;1250;60087;-69
2023/11/07 09:06:41;;;;;;;1.60;1.10;;;;;;;12.04;100.00;98827.60;109837;1251;59786;-68
2023/11/07 09:09:14;;;;;;;4.40;1.50;;;;;;;12.06;100.00;98822.94;109740;1249;92077;-68
2023/11/07 09:11:42;;;;;;;1.90;1.30;;;;;;;12.11;100.00;98824.58;109847;1251;59790;-71
2023/11/07 09:14:09;;;;;;;2.40;1.20;;;;;;;12.13;100.00;98828.30;109651;1250;63748;-69
2023/11/07 09:16:35;;;;;;;1.70;0.90;;;;;;;12.16;100.00;98831.32;109796;1249;59764;-69
2023/11/07 09:19:02;;;;;;;2.10;1.50;;;;;;;12.19;100.00;98828.42;109824;1250;59660;-70
2023/11/07 09:21:29;;;;;;;4.30;1.20;;;;;;;12.23;100.00;98826.49;109522;1250;66585;-69
2023/11/07 09:23:55;;;;;;;2.40;1.20;;;;;;;12.27;100.00;98828.50;109846;1249;60324;-69
2023/11/07 09:26:22;;;;;;;2.80;1.60;;;;;;;12.32;100.00;98825.95;109803;1250;64469;-70
2023/11/07 09:28:50;;;;;;;1.90;1.50;;;;;;;12.36;100.00;98825.30;109800;1249;59828;-69
2023/11/07 09:31:18;;;;;;;2.10;1.20;;;;;;;12.42;100.00;98830.60;109548;1250;59847;-69
2023/11/07 09:33:45;;;;;;;2.40;1.30;;;;;;;12.45;100.00;98831.02;109819;1249;66915;-69
2023/11/07 09:36:14;;;;;;;2.20;0.80;;;;;;;12.49;100.00;98836.44;109797;1250;59998;-70
2023/11/07 09:38:42;;;;;;;2.70;1.30;;;;;;;12.53;100.00;98837.54;109842;1250;62944;-69
2023/11/07 09:41:08;;;;;;;2.30;1.20;;;;;;;12.56;100.00;98837.69;109558;1251;59820;-69
2023/11/07 09:43:35;;;;;;;2.10;0.90;;;;;;;12.59;100.00;98835.53;109795;1251;59661;-69
2023/11/07 09:46:03;;;;;;;2.60;1.20;;;;;;;12.60;100.00;98838.59;109821;1251;59870;-69
2023/11/07 09:48:29;;;;;;;2.40;0.90;;;;;;;12.63;100.00;98839.26;109805;1251;59953;-70
2023/11/07 09:50:57;;;;;;;2.40;1.20;;;;;;;12.68;100.00;98840.48;109850;1250;59924;-70
2023/11/07 09:53:24;;;;;;;2.90;1.20;;;;;;;12.72;100.00;98841.77;109536;1250;59778;-70
2023/11/07 09:55:52;;;;;;;1.60;1.00;;;;;;;12.76;100.00;98842.50;109796;1250;59728;-69
2023/11/07 09:58:28;;;;;;;3.40;1.40;;;;;;;12.81;100.00;98837.89;109548;1251;67197;-70
2023/11/07 10:00:58;;;;;;;4.20;1.40;;;;;;;12.87;100.00;98835.09;109394;1251;59925;-69
2023/11/07 10:03:25;;;;;;;2.40;1.30;;;;;;;12.93;100.00;98832.30;109313;1251;62694;-69
2023/11/07 10:05:53;;;;;;;1.30;0.90;;;;;;;12.97;100.00;98831.04;109652;1250;59843;-69
2023/11/07 10:08:23;;;;;;;2.20;1.40;;;;;;;13.02;100.00;98829.06;109683;1250;59666;-69
2023/11/07 10:11:14;;;;;;;1.30;0.80;;;;;;;13.10;100.00;98831.08;109686;1251;66791;-68
2023/11/07 10:14:01;;;;;;;2.20;0.90;;;;;;;13.16;100.00;98831.16;109651;1251;59869;-69
2023/11/07 10:16:39;;;;;;;2.00;1.00;;;;;;;13.23;100.00;98830.60;109523;1250;63937;-69
2023/11/07 10:19:07;;;;;;;1.60;1.20;;;;;;;13.30;100.00;98825.06;109668;1251;59938;-70
2023/11/07 10:21:34;;;;;;;2.60;1.20;;;;;;;13.38;100.00;98828.90;109673;1251;59790;-69
2023/11/07 10:24:02;;;;;;;2.60;1.40;;;;;;;13.43;100.00;98826.67;109263;1250;65273;-69
2023/11/07 10:26:30;;;;;;;1.80;1.10;;;;;;;13.47;100.00;98829.04;109668;1250;59849;-69
2023/11/07 10:29:15;;;;;;;1.80;1.00;;;;;;;13.47;100.00;98831.55;109674;1250;62958;-69
2023/11/07 10:31:42;;;;;;;2.50;1.00;;;;;;;13.45;100.00;98829.55;109549;1249;59812;-69
2023/11/07 10:34:16;;;;;;;3.40;1.30;;;;;;;13.47;100.00;98827.98;109557;1250;59828;-69
2023/11/07 10:36:44;;;;;;;1.70;1.00;;;;;;;13.56;100.00;98825.48;109641;1251;67217;-70
2023/11/07 10:39:21;;;;;;;3.30;1.00;;;;;;;13.58;100.00;98825.09;109645;1250;59869;-69
2023/11/07 10:41:48;;;;;;;1.20;1.00;;;;;;;13.56;100.00;98825.23;109708;1251;64083;-68
2023/11/07 10:44:29;;;;;;;4.30;1.40;;;;;;;13.54;100.00;98824.90;109621;1251;59867;-69
2023/11/07 10:46:57;;;;;;;4.70;1.50;;;;;;;13.55;100.00;98821.80;109561;1250;59676;-70
2023/11/07 10:49:25;;;;;;;3.30;1.10;;;;;;;13.58;100.00;98823.13;109674;1250;65468;-69
2023/11/07 10:51:55;;;;;;;2.80;1.10;;;;;;;13.61;100.00;98819.69;109304;1254;59891;-69
2023/11/07 10:54:21;;;;;;;;;;;;;;;13.64;100.00;98817.70;109292;1254;64904;-69
2023/11/07 10:56:50;;;;;;;2.10;1.00;;;;;;;13.69;100.00;98813.33;109326;1254;59726;-70
2023/11/07 10:59:22;;;;;;;3.10;1.30;;;;;;;13.74;100.00;98811.27;109288;1254;59778;-69
2023/11/07 11:01:50;;;;;;;2.80;1.30;;;;;;;13.81;100.00;98810.34;109335;1254;66844;-68
2023/11/07 11:04:23;;;;;;;4.40;3.10;;;;;;;13.85;100.00;98813.05;109173;1254;60041;-68
2023/11/07 11:07:11;;;;;;;2.60;1.80;;;;;;;13.88;100.00;98811.92;109289;1254;62709;-69
2023/11/07 11:09:41;;;;;;;9.80;4.90;;;;;;;13.92;100.00;98804.48;109228;1254;60021;-69
2023/11/07 11:12:09;;;;;;;3.00;1.80;;;;;;;13.94;100.00;98800.38;109168;1254;60389;-69
2023/11/07 11:14:35;;;;;;;4.30;1.50;;;;;;;13.95;100.00;98799.20;109297;1254;68081;-69
2023/11/07 11:17:33;;;;;;;2.60;1.40;;;;;;;13.96;100.00;98799.16;109312;1254;60073;-69